createdAt,value
2022-09-28T00:00:51.750Z,12.59
2022-09-28T00:03:18.219Z,12.55
2022-09-28T00:05:44.695Z,12.50
2022-09-28T00:08:11.157Z,12.49
2022-09-28T00:10:37.786Z,12.44
2022-09-28T00:13:04.531Z,12.43
2022-09-28T00:15:30.984Z,12.42
2022-09-28T00:17:57.455Z,12.39
2022-09-28T00:20:23.942Z,12.41
2022-09-28T00:22:50.406Z,12.39
2022-09-28T00:25:17.036Z,12.36
2022-09-28T00:27:43.727Z,12.34
2022-09-28T00:30:10.485Z,12.30
2022-09-28T00:32:36.964Z,12.28
2022-09-28T00:35:03.629Z,12.22
2022-09-28T00:37:30.117Z,12.19
2022-09-28T00:39:56.936Z,12.15
2022-09-28T00:42:26.268Z,12.16
2022-09-28T00:44:54.567Z,12.12
2022-09-28T00:47:54.741Z,12.08
2022-09-28T00:50:30.127Z,12.04
2022-09-28T00:53:18.435Z,12.01
2022-09-28T00:56:07.556Z,11.99
2022-09-28T00:58:39.711Z,11.91
2022-09-28T01:01:06.386Z,11.92
2022-09-28T01:03:33.923Z,11.92
2022-09-28T01:06:03.664Z,11.87
2022-09-28T01:08:32.825Z,11.81
2022-09-28T01:10:59.970Z,11.82
2022-09-28T01:13:27.237Z,11.80
2022-09-28T01:16:08.035Z,11.78
2022-09-28T01:19:22.242Z,11.81
2022-09-28T01:22:19.586Z,11.80
2022-09-28T01:24:48.683Z,11.78
2022-09-28T01:27:29.905Z,11.82
2022-09-28T01:30:08.342Z,11.83
2022-09-28T01:32:38.322Z,11.85
2022-09-28T01:35:15.090Z,11.85
2022-09-28T01:37:44.322Z,11.84
2022-09-28T01:40:13.377Z,11.83
2022-09-28T01:42:44.108Z,11.78
2022-09-28T01:45:23.813Z,11.76
2022-09-28T01:47:52.113Z,11.71
2022-09-28T01:50:22.987Z,11.72
2022-09-28T01:52:56.271Z,11.71
2022-09-28T01:55:31.255Z,11.69
2022-09-28T01:58:00.560Z,11.62
2022-09-28T02:00:28.221Z,11.64
2022-09-28T02:03:06.130Z,11.61
2022-09-28T02:05:35.474Z,11.58
2022-09-28T02:08:28.418Z,11.55
2022-09-28T02:11:05.950Z,11.54
2022-09-28T02:14:07.183Z,11.47
2022-09-28T02:16:48.123Z,11.50
2022-09-28T02:19:20.762Z,11.46
2022-09-28T02:22:08.575Z,11.37
2022-09-28T02:24:45.474Z,11.38
2022-09-28T02:27:27.558Z,11.34
2022-09-28T02:29:54.066Z,11.36
2022-09-28T02:32:20.762Z,11.34
2022-09-28T02:34:47.337Z,11.34
2022-09-28T02:37:14.141Z,11.31
2022-09-28T02:39:40.686Z,11.30
2022-09-28T02:42:34.479Z,11.26
2022-09-28T02:45:29.805Z,11.23
2022-09-28T02:47:56.261Z,11.20
2022-09-28T02:50:44.041Z,11.18
2022-09-28T02:53:37.472Z,11.15
2022-09-28T02:56:41.699Z,11.12
2022-09-28T02:59:31.329Z,11.11
2022-09-28T03:02:22.692Z,11.06
2022-09-28T03:05:04.108Z,11.04
2022-09-28T03:07:57.614Z,11.01
2022-09-28T03:10:38.565Z,10.99
2022-09-28T03:13:06.190Z,11.04
2022-09-28T03:15:34.714Z,11.00
2022-09-28T03:18:01.420Z,11.09
2022-09-28T03:20:29.739Z,11.07
2022-09-28T03:23:22.898Z,11.08
2022-09-28T03:25:42.835Z,11.11
2022-09-28T03:28:09.293Z,11.10
2022-09-28T03:30:35.883Z,11.12
2022-09-28T03:33:03.159Z,11.11
2022-09-28T03:35:29.850Z,11.10
2022-09-28T03:37:57.192Z,11.07
2022-09-28T03:40:24.120Z,11.05
2022-09-28T03:42:50.653Z,11.06
2022-09-28T03:45:17.137Z,11.05
2022-09-28T03:47:47.215Z,11.09
2022-09-28T03:50:13.795Z,11.07
2022-09-28T03:52:40.393Z,11.05
2022-09-28T03:55:07.381Z,11.01
2022-09-28T03:57:33.858Z,11.02
2022-09-28T04:00:00.619Z,11.02
2022-09-28T04:02:27.146Z,10.98
2022-09-28T04:04:53.653Z,10.97
2022-09-28T04:07:20.127Z,10.92
2022-09-28T04:09:46.620Z,10.90
2022-09-28T04:12:13.118Z,10.89
2022-09-28T04:14:39.594Z,10.86
2022-09-28T04:17:07.236Z,10.86
2022-09-28T04:19:33.771Z,10.83
2022-09-28T04:22:01.703Z,10.82
2022-09-28T04:24:28.364Z,10.77
2022-09-28T04:27:14.785Z,10.77
2022-09-28T04:29:41.771Z,10.74
2022-09-28T04:32:08.330Z,10.72
2022-09-28T04:34:37.238Z,10.69
2022-09-28T04:37:05.303Z,10.67
2022-09-28T04:39:31.949Z,10.67
2022-09-28T04:41:58.502Z,10.64
2022-09-28T04:44:24.958Z,10.62
2022-09-28T04:46:51.402Z,10.58
2022-09-28T04:49:17.958Z,10.55
2022-09-28T04:51:44.564Z,10.56
2022-09-28T04:54:11.050Z,10.56
2022-09-28T04:56:37.781Z,10.54
2022-09-28T04:59:04.337Z,10.50
2022-09-28T05:01:31.311Z,10.54
2022-09-28T05:03:57.785Z,10.58
2022-09-28T05:06:27.997Z,10.62
2022-09-28T05:08:57.504Z,10.67
2022-09-28T05:11:24.175Z,10.73
2022-09-28T05:13:50.943Z,10.76
2022-09-28T05:16:17.942Z,10.85
2022-09-28T05:18:44.459Z,10.88
2022-09-28T05:21:15.791Z,10.93
2022-09-28T05:23:46.975Z,10.96
2022-09-28T05:26:14.751Z,10.99
2022-09-28T05:28:41.383Z,10.96
2022-09-28T05:31:08.008Z,11.00
2022-09-28T05:33:34.578Z,10.97
2022-09-28T05:36:01.980Z,10.95
2022-09-28T05:38:29.943Z,10.92
2022-09-28T05:40:56.954Z,10.90
2022-09-28T05:43:23.808Z,10.86
2022-09-28T05:45:54.527Z,10.85
2022-09-28T05:48:22.272Z,10.80
2022-09-28T05:50:52.617Z,10.76
2022-09-28T05:53:20.427Z,10.73
2022-09-28T05:55:47.566Z,10.73
2022-09-28T05:58:14.399Z,10.72
2022-09-28T06:00:40.863Z,10.69
2022-09-28T06:03:10.985Z,10.66
2022-09-28T06:05:39.404Z,10.67
2022-09-28T06:08:08.336Z,10.66
2022-09-28T06:10:35.302Z,10.65
2022-09-28T06:13:02.211Z,10.67
2022-09-28T06:15:30.814Z,10.68
2022-09-28T06:17:59.118Z,10.71
2022-09-28T06:20:27.463Z,10.75
2022-09-28T06:22:54.198Z,10.82
2022-09-28T06:25:22.630Z,10.85
2022-09-28T06:27:59.394Z,10.88
2022-09-28T06:30:27.640Z,10.85
2022-09-28T06:33:00.304Z,10.84
2022-09-28T06:35:30.271Z,10.82
2022-09-28T06:37:57.806Z,10.80
2022-09-28T06:40:25.005Z,10.80
2022-09-28T06:43:17.182Z,10.80
2022-09-28T06:45:44.026Z,10.81
2022-09-28T06:48:11.275Z,10.82
2022-09-28T06:50:40.405Z,10.80
2022-09-28T06:53:09.530Z,10.92
2022-09-28T06:55:39.157Z,11.04
2022-09-28T06:58:07.966Z,11.20
2022-09-28T07:00:36.251Z,11.29
2022-09-28T07:03:04.904Z,11.37
2022-09-28T07:05:34.937Z,11.49
2022-09-28T07:08:02.048Z,11.65
2022-09-28T07:10:29.707Z,11.80
2022-09-28T07:12:57.689Z,11.95
2022-09-28T07:15:25.279Z,12.09
2022-09-28T07:18:03.123Z,12.08
2022-09-28T07:20:30.858Z,12.15
2022-09-28T07:23:15.151Z,12.21
2022-09-28T07:25:50.289Z,12.37
2022-09-28T07:28:17.401Z,12.56
2022-09-28T07:30:46.857Z,12.71
2022-09-28T07:33:15.945Z,12.82
2022-09-28T07:35:50.708Z,12.90
2022-09-28T07:38:17.211Z,12.96
2022-09-28T07:41:02.110Z,13.09
2022-09-28T07:43:28.642Z,13.39
2022-09-28T07:45:55.925Z,13.64
2022-09-28T07:48:22.994Z,13.75
2022-09-28T07:50:53.509Z,13.63
2022-09-28T07:53:24.968Z,13.57
2022-09-28T07:55:53.516Z,13.70
2022-09-28T07:58:20.699Z,13.80
2022-09-28T08:00:49.062Z,13.85
2022-09-28T08:03:22.426Z,13.85
2022-09-28T08:05:49.804Z,13.86
2022-09-28T08:08:16.519Z,13.93
2022-09-28T08:10:47.027Z,14.04
2022-09-28T08:13:15.353Z,14.05
2022-09-28T08:15:42.722Z,14.10
2022-09-28T08:18:10.051Z,14.13
2022-09-28T08:20:55.211Z,14.16
2022-09-28T08:23:21.981Z,14.06
2022-09-28T08:25:52.508Z,14.02
2022-09-28T08:28:19.009Z,14.03
2022-09-28T08:30:46.816Z,13.99
2022-09-28T08:33:14.820Z,14.01
2022-09-28T08:35:42.062Z,14.00
2022-09-28T08:38:09.094Z,14.14
2022-09-28T08:40:52.278Z,14.19
2022-09-28T08:44:00.087Z,14.17
2022-09-28T08:46:31.799Z,14.29
2022-09-28T08:52:11.472Z,14.46
2022-09-28T08:54:45.211Z,14.33
2022-09-28T08:57:16.306Z,14.11
2022-09-28T08:59:55.860Z,14.01
2022-09-28T09:02:39.786Z,14.09
2022-09-28T09:05:13.823Z,14.13
2022-09-28T09:07:43.085Z,14.11
2022-09-28T09:10:21.433Z,14.10
2022-09-28T09:13:10.515Z,13.98
2022-09-28T09:16:01.091Z,14.02
2022-09-28T09:18:37.568Z,14.19
2022-09-28T09:21:15.051Z,14.23
2022-09-28T09:24:21.512Z,14.35
2022-09-28T09:26:57.343Z,14.32
2022-09-28T09:29:47.231Z,14.25
2022-09-28T09:32:21.398Z,14.20
2022-09-28T09:35:25.301Z,14.22
2022-09-28T09:38:19.371Z,14.70
2022-09-28T09:41:16.086Z,14.77
2022-09-28T09:43:55.896Z,15.10
2022-09-28T09:46:46.791Z,15.39
2022-09-28T09:49:21.798Z,15.38
2022-09-28T09:52:11.564Z,15.56
2022-09-28T09:54:45.635Z,15.68
2022-09-28T09:57:20.502Z,15.73
2022-09-28T09:59:48.562Z,15.85
2022-09-28T10:02:22.330Z,15.67
2022-09-28T10:04:52.589Z,15.49
2022-09-28T10:07:24.414Z,15.62
2022-09-28T10:09:56.298Z,15.71
2022-09-28T10:12:24.335Z,15.40
2022-09-28T10:14:50.923Z,15.35
2022-09-28T10:17:19.896Z,15.60
2022-09-28T10:19:46.535Z,15.89
2022-09-28T10:22:17.978Z,16.02
2022-09-28T10:24:47.518Z,16.15
2022-09-28T10:27:20.479Z,16.58
2022-09-28T10:29:50.073Z,16.37
2022-09-28T10:32:25.897Z,16.39
2022-09-28T10:34:54.987Z,16.62
2022-09-28T10:37:21.565Z,16.66
2022-09-28T10:39:53.775Z,17.03
2022-09-28T10:42:28.170Z,17.19
2022-09-28T10:45:07.337Z,17.39
2022-09-28T10:47:35.600Z,17.60
2022-09-28T10:50:02.914Z,17.93
2022-09-28T10:52:44.927Z,17.91
2022-09-28T10:55:32.339Z,18.85
2022-09-28T10:58:00.287Z,18.96
2022-09-28T11:00:31.580Z,18.84
2022-09-28T11:02:58.910Z,18.70
2022-09-28T11:05:27.977Z,18.92
2022-09-28T11:07:57.005Z,18.40
2022-09-28T11:10:26.567Z,17.67
2022-09-28T11:12:54.421Z,17.18
2022-09-28T11:15:25.695Z,16.75
2022-09-28T11:17:52.645Z,16.58
2022-09-28T11:20:27.833Z,17.72
2022-09-28T11:23:22.141Z,19.51
2022-09-28T11:26:04.626Z,20.87
2022-09-28T11:28:37.397Z,21.85
2022-09-28T11:31:07.274Z,21.24
2022-09-28T11:33:38.765Z,20.23
2022-09-28T11:36:12.378Z,19.27
2022-09-28T11:38:46.080Z,18.83
2022-09-28T11:41:45.778Z,18.50
2022-09-28T11:44:15.367Z,18.04
2022-09-28T11:47:25.345Z,20.32
2022-09-28T11:50:17.841Z,22.60
2022-09-28T11:53:15.850Z,22.93
2022-09-28T11:55:48.395Z,23.31
2022-09-28T11:58:24.647Z,22.04
2022-09-28T12:00:57.516Z,20.27
2022-09-28T12:03:50.696Z,19.00
2022-09-28T12:06:27.659Z,18.62
2022-09-28T12:09:06.580Z,18.25
2022-09-28T12:11:37.829Z,18.02
2022-09-28T12:14:11.005Z,18.43
2022-09-28T12:17:04.907Z,19.42
2022-09-28T12:19:42.524Z,20.14
2022-09-28T12:22:20.891Z,19.76
2022-09-28T12:24:51.340Z,19.94
2022-09-28T12:27:24.911Z,23.20
2022-09-28T12:29:54.459Z,25.24
2022-09-28T12:32:26.692Z,25.30
2022-09-28T12:34:53.231Z,26.32
2022-09-28T12:37:28.642Z,27.44
2022-09-28T12:40:30.549Z,28.41
2022-09-28T12:43:29.088Z,29.54
2022-09-28T12:46:11.967Z,29.59
2022-09-28T12:49:27.258Z,29.32
2022-09-28T12:51:54.521Z,28.15
2022-09-28T12:54:39.265Z,26.19
2022-09-28T12:57:25.970Z,25.04
2022-09-28T12:59:55.363Z,25.81
2022-09-28T13:02:48.080Z,25.07
2022-09-28T13:05:32.668Z,24.44
2022-09-28T13:08:10.041Z,25.88
2022-09-28T13:10:53.226Z,25.73
2022-09-28T13:13:22.567Z,24.34
2022-09-28T13:15:58.200Z,23.37
2022-09-28T13:18:44.655Z,22.73
2022-09-28T13:21:14.172Z,22.55
2022-09-28T13:23:44.005Z,22.47
2022-09-28T13:26:25.616Z,22.33
2022-09-28T13:28:54.784Z,21.90
2022-09-28T13:31:31.858Z,22.07
2022-09-28T13:34:02.962Z,23.42
2022-09-28T13:36:30.513Z,24.48
2022-09-28T13:38:59.429Z,27.68
2022-09-28T13:41:38.022Z,27.61
2022-09-28T13:44:13.384Z,25.19
2022-09-28T13:46:58.591Z,24.00
2022-09-28T13:49:45.502Z,24.71
2022-09-28T13:52:27.879Z,26.91
2022-09-28T13:55:09.783Z,28.78
2022-09-28T13:57:57.714Z,30.33
2022-09-28T14:00:32.377Z,31.23
2022-09-28T14:03:15.076Z,32.11
2022-09-28T14:05:47.297Z,33.06
2022-09-28T14:08:34.765Z,33.45
2022-09-28T14:11:34.366Z,34.23
2022-09-28T14:14:02.221Z,33.84
2022-09-28T14:16:33.857Z,33.66
2022-09-28T14:19:26.592Z,34.14
2022-09-28T14:22:25.098Z,32.90
2022-09-28T14:25:03.793Z,30.32
2022-09-28T14:28:01.464Z,28.46
2022-09-28T14:30:46.701Z,27.24
2022-09-28T14:33:19.414Z,26.60
2022-09-28T14:35:54.081Z,26.19
2022-09-28T14:38:44.770Z,25.64
2022-09-28T14:41:18.012Z,25.24
2022-09-28T14:43:44.471Z,24.94
2022-09-28T14:46:11.359Z,25.14
2022-09-28T14:48:48.563Z,27.58
2022-09-28T14:51:27.142Z,26.56
2022-09-28T14:53:56.434Z,24.98
2022-09-28T14:56:23.963Z,24.02
2022-09-28T14:58:56.125Z,23.40
2022-09-28T15:01:25.369Z,23.30
2022-09-28T15:03:56.614Z,24.24
2022-09-28T15:06:24.077Z,26.42
2022-09-28T15:08:50.591Z,27.16
2022-09-28T15:11:22.693Z,27.05
2022-09-28T15:13:53.314Z,25.89
2022-09-28T15:16:24.354Z,25.17
2022-09-28T15:18:56.694Z,24.66
2022-09-28T15:21:24.306Z,24.39
2022-09-28T15:23:50.858Z,24.19
2022-09-28T15:26:27.540Z,23.75
2022-09-28T15:28:54.978Z,23.25
2022-09-28T15:31:24.349Z,22.90
2022-09-28T15:34:09.577Z,22.57
2022-09-28T15:36:41.508Z,22.30
2022-09-28T15:39:44.617Z,21.86
2022-09-28T15:42:11.378Z,21.68
2022-09-28T15:44:39.514Z,21.48
2022-09-28T15:47:09.470Z,21.44
2022-09-28T15:49:53.408Z,21.46
2022-09-28T15:52:53.826Z,22.03
2022-09-28T15:55:44.722Z,22.91
2022-09-28T15:58:20.207Z,23.42
2022-09-28T16:00:49.594Z,23.77
2022-09-28T16:03:21.168Z,24.08
2022-09-28T16:05:59.677Z,24.31
2022-09-28T16:08:45.881Z,24.61
2022-09-28T16:11:15.275Z,24.89
2022-09-28T16:14:06.774Z,25.19
2022-09-28T16:16:55.270Z,24.90
2022-09-28T16:19:48.042Z,24.34
2022-09-28T16:22:25.493Z,24.01
2022-09-28T16:24:57.135Z,23.74
2022-09-28T16:27:38.990Z,23.41
2022-09-28T16:30:20.542Z,23.24
2022-09-28T16:32:52.994Z,22.95
2022-09-28T16:35:26.843Z,22.74
2022-09-28T16:38:14.796Z,22.42
2022-09-28T16:40:44.261Z,22.28
2022-09-28T16:43:27.756Z,21.92
2022-09-28T16:46:12.834Z,21.26
2022-09-28T16:48:50.665Z,21.56
2022-09-28T16:51:22.369Z,21.77
2022-09-28T16:54:07.782Z,21.89
2022-09-28T16:56:36.217Z,21.85
2022-09-28T16:59:03.447Z,21.88
2022-09-28T17:01:31.394Z,21.77
2022-09-28T17:03:58.006Z,21.62
2022-09-28T17:06:25.376Z,21.31
2022-09-28T17:08:52.460Z,20.93
2022-09-28T17:11:24.739Z,20.79
2022-09-28T17:13:53.560Z,20.57
2022-09-28T17:16:37.209Z,20.37
2022-09-28T17:19:21.468Z,20.09
2022-09-28T17:21:48.840Z,19.95
2022-09-28T17:24:15.455Z,19.78
2022-09-28T17:26:44.429Z,19.68
2022-09-28T17:29:14.683Z,19.52
2022-09-28T17:31:45.884Z,19.51
2022-09-28T17:34:16.153Z,19.39
2022-09-28T17:36:44.025Z,19.29
2022-09-28T17:39:12.591Z,19.19
2022-09-28T17:41:40.254Z,19.13
2022-09-28T17:44:07.337Z,18.94
2022-09-28T17:46:36.893Z,18.78
2022-09-28T17:49:05.757Z,18.70
2022-09-28T17:51:37.577Z,18.54
2022-09-28T17:54:06.568Z,18.43
2022-09-28T17:56:33.654Z,18.34
2022-09-28T17:59:03.286Z,18.19
2022-09-28T18:01:34.127Z,18.04
2022-09-28T18:04:02.801Z,17.96
2022-09-28T18:06:29.381Z,17.85
2022-09-28T18:08:55.902Z,17.76
2022-09-28T18:11:22.669Z,17.69
2022-09-28T18:13:49.167Z,17.62
2022-09-28T18:16:16.315Z,17.50
2022-09-28T18:18:42.877Z,17.46
2022-09-28T18:21:09.449Z,17.46
2022-09-28T18:23:39.471Z,17.44
2022-09-28T18:26:13.862Z,17.39
2022-09-28T18:28:40.833Z,17.34
2022-09-28T18:31:12.708Z,17.23
2022-09-28T18:33:39.351Z,17.24
2022-09-28T18:36:07.026Z,17.23
2022-09-28T18:38:37.363Z,17.20
2022-09-28T18:41:09.227Z,17.11
2022-09-28T18:43:36.619Z,17.08
2022-09-28T18:46:10.270Z,17.10
2022-09-28T18:48:38.448Z,17.08
2022-09-28T18:51:09.193Z,17.05
2022-09-28T18:53:36.493Z,17.03
2022-09-28T18:56:08.118Z,17.00
2022-09-28T18:58:36.491Z,17.01
2022-09-28T19:01:29.396Z,17.00
2022-09-28T19:04:00.204Z,16.94
2022-09-28T19:06:26.787Z,16.95
2022-09-28T19:08:55.718Z,16.94
2022-09-28T19:11:23.058Z,16.87
2022-09-28T19:13:50.018Z,16.85
2022-09-28T19:16:21.795Z,16.85
2022-09-28T19:18:48.885Z,16.81
2022-09-28T19:21:16.117Z,16.79
2022-09-28T19:23:49.045Z,16.80
2022-09-28T19:26:22.149Z,16.75
2022-09-28T19:28:48.970Z,16.74
2022-09-28T19:31:15.894Z,16.71
2022-09-28T19:33:42.485Z,16.72
2022-09-28T19:36:12.152Z,16.63
2022-09-28T19:38:39.597Z,16.68
2022-09-28T19:41:40.781Z,16.60
2022-09-28T19:44:10.858Z,16.56
2022-09-28T19:46:39.040Z,16.61
2022-09-28T19:49:14.354Z,16.55
2022-09-28T19:52:01.647Z,16.52
2022-09-28T19:54:36.285Z,16.55
2022-09-28T19:57:08.861Z,16.53
2022-09-28T19:59:38.751Z,16.46
2022-09-28T20:02:07.478Z,16.43
2022-09-28T20:04:34.408Z,16.42
2022-09-28T20:07:01.761Z,16.40
2022-09-28T20:09:28.390Z,16.37
2022-09-28T20:11:55.073Z,16.30
2022-09-28T20:14:23.488Z,16.22
2022-09-28T20:16:52.388Z,16.17
2022-09-28T20:19:21.513Z,16.18
2022-09-28T20:21:48.394Z,16.16
2022-09-28T20:24:17.694Z,16.15
2022-09-28T20:26:45.814Z,16.09
2022-09-28T20:29:12.893Z,16.07
2022-09-28T20:31:39.390Z,16.06
2022-09-28T20:34:06.831Z,16.05
2022-09-28T20:36:33.910Z,16.03
2022-09-28T20:39:01.907Z,16.03
2022-09-28T20:41:35.767Z,16.03
2022-09-28T20:44:05.928Z,16.00
2022-09-28T20:46:34.707Z,16.00
2022-09-28T20:49:01.713Z,16.01
2022-09-28T20:51:28.445Z,15.99
2022-09-28T20:53:56.454Z,16.01
2022-09-28T20:56:25.044Z,15.95
2022-09-28T20:58:52.104Z,15.99
2022-09-28T21:01:23.912Z,15.92
2022-09-28T21:03:53.020Z,15.97
2022-09-28T21:06:21.925Z,15.96
2022-09-28T21:08:49.598Z,15.94
2022-09-28T21:11:21.382Z,15.95
2022-09-28T21:13:48.535Z,15.92
2022-09-28T21:16:17.675Z,15.90
2022-09-28T21:18:45.109Z,15.93
2022-09-28T21:21:13.589Z,15.91
2022-09-28T21:23:40.154Z,15.91
2022-09-28T21:26:08.994Z,15.84
2022-09-28T21:28:36.451Z,15.90
2022-09-28T21:31:06.214Z,15.86
2022-09-28T21:33:33.003Z,15.85
2022-09-28T21:36:04.615Z,15.86
2022-09-28T21:38:31.332Z,15.82
2022-09-28T21:40:58.987Z,15.81
2022-09-28T21:43:27.702Z,15.79
2022-09-28T21:45:55.727Z,15.80
2022-09-28T21:48:24.467Z,15.73
2022-09-28T21:51:12.660Z,15.68
2022-09-28T21:53:39.474Z,15.70
2022-09-28T21:56:08.098Z,15.68
2022-09-28T21:58:35.674Z,15.69
2022-09-28T22:01:16.864Z,15.71
2022-09-28T22:03:45.217Z,15.70
2022-09-28T22:06:12.230Z,15.71
2022-09-28T22:08:39.569Z,15.72
2022-09-28T22:11:08.919Z,15.64
2022-09-28T22:13:44.753Z,15.69
2022-09-28T22:16:12.833Z,15.69
2022-09-28T22:18:39.892Z,15.64
2022-09-28T22:21:11.812Z,15.60
2022-09-28T22:23:38.955Z,15.61
2022-09-28T22:26:11.632Z,15.54
2022-09-28T22:28:39.161Z,15.55
2022-09-28T22:31:06.240Z,15.53
2022-09-28T22:33:32.845Z,15.53
2022-09-28T22:35:59.414Z,15.51
2022-09-28T22:38:25.944Z,15.57
2022-09-28T22:40:55.037Z,15.55
2022-09-28T22:43:26.075Z,15.52
2022-09-28T22:46:07.391Z,15.52
2022-09-28T22:48:34.771Z,15.52
2022-09-28T22:51:02.538Z,15.48
2022-09-28T22:53:29.150Z,15.45
2022-09-28T22:55:56.662Z,15.43
2022-09-28T22:58:23.714Z,15.45
2022-09-28T23:00:50.285Z,15.44
2022-09-28T23:03:17.918Z,15.42
2022-09-28T23:05:56.961Z,15.42
2022-09-28T23:08:24.309Z,15.39
2022-09-28T23:10:51.193Z,15.40
2022-09-28T23:13:18.385Z,15.34
2022-09-28T23:15:58.200Z,15.28
2022-09-28T23:18:27.061Z,15.32
2022-09-28T23:20:55.334Z,15.33
2022-09-28T23:23:22.581Z,15.36
2022-09-28T23:25:49.545Z,15.32
2022-09-28T23:28:16.797Z,15.35
2022-09-28T23:30:43.375Z,15.32
2022-09-28T23:33:14.356Z,15.32
2022-09-28T23:35:41.350Z,15.37
2022-09-28T23:38:11.930Z,15.34
2022-09-28T23:40:38.535Z,15.41
2022-09-28T23:43:05.104Z,15.42
2022-09-28T23:45:31.954Z,15.45
2022-09-28T23:47:58.434Z,15.46
2022-09-28T23:50:25.297Z,15.45
2022-09-28T23:52:51.881Z,15.43
2022-09-28T23:55:19.132Z,15.44
2022-09-28T23:57:46.351Z,15.43
